Time;durP1;ratioP1;P1;durP2;ratioP2;P2;SDS_P1;SDS_P2;PMS_P1;PMS_P2;Temp;Humidity;BMP_temperature;BMP_pressure;BME280_temperature;BME280_humidity;BME280_pressure;Samples;Min_cycle;Max_cycle;Signal;HPM_P1;HPM_P2
2021/06/03 00:00:38;;;;;;;4.88;4.30;;;;;;;14.61;49.44;94222.69;4935032;28;20482;-84
2021/06/03 00:03:05;;;;;;;6.63;3.90;;;;;;;14.63;48.78;94233.03;4926076;28;20126;-83
2021/06/03 00:05:40;;;;;;;5.30;3.42;;;;;;;14.58;49.52;94230.50;4937913;28;20045;-84
2021/06/03 00:08:07;;;;;;;4.85;3.85;;;;;;;14.48;49.50;94226.19;4933908;28;20040;-86
2021/06/03 00:10:35;;;;;;;7.30;4.60;;;;;;;14.46;49.45;94228.38;4930688;28;20078;-86
2021/06/03 00:13:01;;;;;;;3.85;3.55;;;;;;;14.49;49.12;94221.66;4934953;28;20038;-85
2021/06/03 00:15:28;;;;;;;4.90;3.92;;;;;;;14.53;49.67;94235.94;4934456;28;20051;-87
2021/06/03 00:17:53;;;;;;;8.80;4.63;;;;;;;14.57;49.43;94234.22;4932776;28;20066;-82
2021/06/03 00:20:22;;;;;;;5.97;3.92;;;;;;;14.45;49.95;94223.34;4917598;29;20047;-88
2021/06/03 00:22:48;;;;;;;8.25;4.10;;;;;;;14.44;50.06;94235.09;4917066;29;20043;-86
2021/06/03 00:25:14;;;;;;;5.35;3.80;;;;;;;14.46;49.48;94232.91;4919775;29;20023;-88
2021/06/03 00:27:39;;;;;;;4.45;3.25;;;;;;;14.47;49.39;94223.81;4919543;29;20061;-88
2021/06/03 00:30:08;;;;;;;9.18;4.10;;;;;;;14.45;49.77;94226.81;4918978;29;21008;-87
2021/06/03 00:32:34;;;;;;;5.68;3.15;;;;;;;14.46;49.56;94232.91;4918196;29;20062;-88
2021/06/03 00:35:00;;;;;;;6.88;3.90;;;;;;;14.44;49.16;94224.44;4918754;29;20481;-86
2021/06/03 00:37:26;;;;;;;6.63;3.83;;;;;;;14.49;49.29;94226.97;4919440;29;20051;-87
2021/06/03 00:39:51;;;;;;;7.03;3.42;;;;;;;14.55;49.13;94225.78;4901222;29;20035;-87
2021/06/03 00:42:17;;;;;;;4.03;3.63;;;;;;;14.51;48.81;94230.13;4917853;29;20094;-87
2021/06/03 00:44:43;;;;;;;7.18;3.72;;;;;;;14.50;49.31;94225.91;4914273;29;20614;-88
2021/06/03 00:47:08;;;;;;;8.23;3.50;;;;;;;14.51;49.11;94230.94;4917577;29;20043;-86
2021/06/03 00:49:34;;;;;;;4.95;3.33;;;;;;;14.59;49.06;94232.06;4919542;29;20023;-87
2021/06/03 00:52:00;;;;;;;7.90;4.18;;;;;;;14.62;48.95;94239.44;4923285;29;20065;-82
2021/06/03 00:54:25;;;;;;;8.68;3.53;;;;;;;14.65;48.90;94241.50;4920223;29;20044;-85
2021/06/03 00:56:53;;;;;;;6.03;4.30;;;;;;;14.73;48.56;94238.09;4922691;29;20460;-86
2021/06/03 00:59:19;;;;;;;6.88;3.83;;;;;;;14.69;48.86;94231.81;4917887;29;20043;-87
2021/06/03 01:01:44;;;;;;;5.45;3.30;;;;;;;14.72;48.85;94239.19;4921929;29;20039;-85
2021/06/03 01:04:10;;;;;;;12.10;4.40;;;;;;;14.68;48.84;94231.03;4922938;29;20024;-83
2021/06/03 01:06:36;;;;;;;4.22;3.83;;;;;;;14.69;49.09;94226.50;4922106;29;20052;-88
2021/06/03 01:09:01;;;;;;;4.47;3.83;;;;;;;14.77;49.34;94233.75;4912871;29;20035;-86
2021/06/03 01:11:36;;;;;;;6.93;4.20;;;;;;;14.73;49.24;94232.78;4920520;29;20091;-85
2021/06/03 01:14:03;;;;;;;6.80;4.30;;;;;;;14.77;49.09;94236.41;4918610;29;20093;-84
2021/06/03 01:16:31;;;;;;;4.55;3.80;;;;;;;14.73;49.42;94230.91;4925595;29;20060;-88
2021/06/03 01:18:58;;;;;;;4.80;3.63;;;;;;;14.74;48.94;94239.69;4927305;28;20546;-87
2021/06/03 01:21:38;;;;;;;7.72;4.10;;;;;;;14.82;49.31;94244.25;4923973;28;20049;-89
2021/06/03 01:24:32;;;;;;;5.40;3.58;;;;;;;14.82;49.45;94246.94;4935273;28;20039;-86
2021/06/03 01:27:00;;;;;;;4.25;3.53;;;;;;;14.78;49.15;94245.19;4938602;28;20039;-85
2021/06/03 01:29:28;;;;;;;5.70;3.28;;;;;;;14.81;49.24;94239.25;4933850;28;20101;-84
2021/06/03 01:31:55;;;;;;;7.75;4.20;;;;;;;14.84;49.31;94244.75;4940921;28;20440;-88
2021/06/03 01:34:23;;;;;;;5.20;4.10;;;;;;;14.75;49.52;94241.25;4942106;28;20035;-88
2021/06/03 01:36:50;;;;;;;6.18;4.70;;;;;;;14.82;49.60;94246.13;4940347;28;20384;-90
2021/06/03 01:39:16;;;;;;;9.05;4.32;;;;;;;14.78;50.07;94248.63;4939041;28;20507;-87
2021/06/03 01:41:43;;;;;;;4.93;4.47;;;;;;;14.74;50.05;94239.69;4938496;28;20097;-87
2021/06/03 01:44:09;;;;;;;6.65;4.18;;;;;;;14.62;50.21;94226.13;4933973;28;20055;-87
2021/06/03 01:46:35;;;;;;;7.03;4.70;;;;;;;14.73;50.56;94244.22;4915435;28;20038;-87
2021/06/03 01:49:01;;;;;;;6.72;3.90;;;;;;;14.71;50.29;94241.06;4937518;28;20039;-88
2021/06/03 01:51:28;;;;;;;4.32;3.92;;;;;;;14.73;50.71;94243.44;4940997;28;20043;-86
2021/06/03 01:53:54;;;;;;;8.77;4.07;;;;;;;14.65;51.12;94241.50;4939264;28;20031;-85
2021/06/03 01:56:20;;;;;;;4.50;4.05;;;;;;;14.63;51.19;94249.00;4936281;28;20157;-85
2021/06/03 01:58:47;;;;;;;5.35;4.57;;;;;;;14.62;51.17;94239.44;4940549;28;20031;-86
2021/06/03 02:01:13;;;;;;;9.00;4.32;;;;;;;14.66;50.47;94237.75;4923080;28;20023;-86
2021/06/03 02:03:38;;;;;;;5.10;4.60;;;;;;;14.68;50.49;94246.22;4940888;28;20039;-88
2021/06/03 02:06:06;;;;;;;9.27;5.97;;;;;;;14.68;50.76;94241.69;4923529;28;20058;-86
2021/06/03 02:08:33;;;;;;;7.47;4.47;;;;;;;14.69;49.99;94247.78;4939430;28;20385;-85
2021/06/03 02:10:59;;;;;;;5.57;4.03;;;;;;;14.70;50.25;94246.69;4933793;28;20043;-87
2021/06/03 02:13:34;;;;;;;16.77;5.28;;;;;;;14.67;50.60;94248.06;4942008;28;20146;-88
2021/06/03 02:16:02;;;;;;;5.70;4.03;;;;;;;14.65;50.45;94244.16;4939808;28;20086;-87
2021/06/03 02:18:39;;;;;;;6.75;3.78;;;;;;;14.71;50.13;94240.28;4936827;28;20059;-89
2021/06/03 02:21:06;;;;;;;4.97;3.92;;;;;;;14.63;50.28;94249.00;4921984;29;20051;-87
2021/06/03 02:23:32;;;;;;;5.50;4.05;;;;;;;14.62;50.56;94247.41;4917227;29;20497;-87
2021/06/03 02:26:00;;;;;;;7.95;4.05;;;;;;;14.58;49.89;94241.91;4920200;29;20549;-86
2021/06/03 02:28:27;;;;;;;5.15;4.05;;;;;;;14.65;50.29;94258.25;4923215;29;20031;-82
2021/06/03 02:30:54;;;;;;;5.80;4.05;;;;;;;14.60;50.15;94241.63;4917170;29;20050;-86
2021/06/03 02:33:21;;;;;;;7.32;3.85;;;;;;;14.52;50.28;94231.69;4924273;29;20083;-87
2021/06/03 02:35:46;;;;;;;5.93;3.60;;;;;;;14.53;50.78;94243.91;4921547;29;20051;-87
2021/06/03 02:38:14;;;;;;;4.70;3.50;;;;;;;14.52;51.08;94247.66;4921919;29;20409;-87
2021/06/03 02:40:41;;;;;;;5.65;3.72;;;;;;;14.59;50.91;94258.66;4920737;29;20123;-88
2021/06/03 02:43:06;;;;;;;6.85;3.75;;;;;;;14.56;50.65;94244.06;4925876;29;20023;-88
2021/06/03 02:45:32;;;;;;;4.70;3.67;;;;;;;14.67;50.80;94260.59;4921778;29;20046;-88
2021/06/03 02:47:59;;;;;;;9.90;4.10;;;;;;;14.61;51.07;94257.25;4922191;29;20048;-85
2021/06/03 02:50:27;;;;;;;4.63;3.42;;;;;;;14.66;51.06;94264.38;4921173;29;20479;-88
2021/06/03 02:52:55;;;;;;;4.28;3.90;;;;;;;14.69;51.51;94263.75;4919533;29;20028;-89
2021/06/03 02:55:22;;;;;;;4.60;4.10;;;;;;;14.71;51.40;94264.22;4924033;28;20252;-87
2021/06/03 02:57:47;;;;;;;7.70;4.00;;;;;;;14.66;50.79;94251.06;4921640;29;20040;-87
2021/06/03 03:00:17;;;;;;;7.07;4.38;;;;;;;14.86;50.49;94268.38;4920589;29;20053;-88
2021/06/03 03:02:43;;;;;;;6.88;3.58;;;;;;;14.80;50.52;94254.44;4921903;29;20505;-87
2021/06/03 03:05:09;;;;;;;6.95;4.00;;;;;;;14.79;50.25;94268.03;4920960;29;20054;-84
2021/06/03 03:07:35;;;;;;;5.35;4.00;;;;;;;14.92;50.50;94272.50;4924715;29;20039;-86
2021/06/03 03:10:05;;;;;;;6.68;3.70;;;;;;;14.83;50.36;94269.78;4921198;29;20233;-88
2021/06/03 03:12:30;;;;;;;7.57;4.00;;;;;;;14.90;50.42;94272.03;4916740;28;20594;-86
2021/06/03 03:14:56;;;;;;;6.65;4.22;;;;;;;14.98;50.03;94271.28;4921263;29;20044;-90
2021/06/03 03:17:21;;;;;;;7.30;4.80;;;;;;;15.05;49.90;94277.75;4918715;29;20051;-88
2021/06/03 03:19:47;;;;;;;4.03;3.63;;;;;;;15.27;49.50;94289.47;4922949;29;20051;-87
2021/06/03 03:22:12;;;;;;;4.22;3.83;;;;;;;15.31;49.36;94274.44;4923626;29;20103;-88
2021/06/03 03:24:37;;;;;;;9.38;3.95;;;;;;;15.35;49.37;94286.06;4921714;29;20040;-89
2021/06/03 03:27:04;;;;;;;5.60;3.65;;;;;;;15.42;49.14;94287.19;4920054;29;20098;-88
2021/06/03 03:29:29;;;;;;;6.05;4.20;;;;;;;15.42;49.27;94281.09;4922913;29;20047;-90
2021/06/03 03:31:54;;;;;;;6.97;4.45;;;;;;;15.50;49.07;94288.31;4919923;29;20039;-87
2021/06/03 03:34:20;;;;;;;5.57;3.90;;;;;;;15.47;49.27;94294.28;4922348;29;20022;-89
2021/06/03 03:36:45;;;;;;;5.47;3.80;;;;;;;15.49;49.51;94281.44;4919079;29;20058;-88
2021/06/03 03:39:11;;;;;;;5.80;4.22;;;;;;;15.52;49.42;94296.84;4909472;29;20134;-89
2021/06/03 03:41:37;;;;;;;4.30;3.88;;;;;;;15.62;48.81;94279.78;4922617;29;20040;-90
2021/06/03 03:44:02;;;;;;;4.65;3.95;;;;;;;15.71;48.81;94281.41;4903433;29;20599;-86
2021/06/03 03:46:28;;;;;;;7.78;3.60;;;;;;;15.88;48.79;94278.00;4921885;29;20076;-88
2021/06/03 03:48:53;;;;;;;4.63;3.60;;;;;;;16.18;48.20;94295.00;4916586;29;20039;-83
2021/06/03 03:51:19;;;;;;;3.85;3.25;;;;;;;16.43;47.04;94278.25;4914785;29;20043;-85
2021/06/03 03:53:45;;;;;;;6.63;3.90;;;;;;;16.91;45.92;94288.03;4919633;29;20039;-88
2021/06/03 03:56:13;;;;;;;8.50;3.47;;;;;;;17.56;45.02;94293.06;4918363;28;20134;-89
2021/06/03 03:58:41;;;;;;;4.07;3.28;;;;;;;18.18;44.05;94294.06;4921520;29;20034;-92
2021/06/03 04:01:07;;;;;;;7.00;3.28;;;;;;;18.74;42.30;94293.88;4921379;29;20016;-84
2021/06/03 04:03:32;;;;;;;3.63;2.85;;;;;;;19.20;40.87;94285.59;4923438;29;20054;-89
2021/06/03 04:05:58;;;;;;;6.75;3.22;;;;;;;19.85;39.86;94294.69;4901470;29;20040;-87
2021/06/03 04:08:24;;;;;;;5.55;2.90;;;;;;;20.41;39.35;94287.66;4920700;28;20035;-89
2021/06/03 04:10:50;;;;;;;4.85;2.42;;;;;;;20.95;38.58;94292.69;4923209;28;20911;-90
2021/06/03 04:13:15;;;;;;;4.60;2.85;;;;;;;20.80;37.30;94283.44;4919693;29;20032;-89
2021/06/03 04:15:40;;;;;;;2.90;2.60;;;;;;;20.53;37.94;94287.63;4920782;29;20106;-89
2021/06/03 04:18:06;;;;;;;9.43;3.65;;;;;;;20.16;37.74;94289.56;4921760;28;20580;-90
2021/06/03 04:20:33;;;;;;;4.40;2.95;;;;;;;19.81;38.90;94291.09;4937889;28;20563;-86
2021/06/03 04:22:59;;;;;;;5.35;2.88;;;;;;;19.75;39.45;94295.09;4933007;28;20491;-87
2021/06/03 04:25:25;;;;;;;4.60;3.17;;;;;;;19.50;39.48;94288.94;4935113;28;20031;-87
2021/06/03 04:27:50;;;;;;;4.03;3.63;;;;;;;19.48;39.97;94295.75;4930695;28;20035;-88
2021/06/03 04:30:19;;;;;;;5.20;3.22;;;;;;;20.07;39.51;94299.63;4942622;28;20047;-88
2021/06/03 04:32:47;;;;;;;9.35;2.97;;;;;;;20.49;37.50;94292.13;4942949;28;20122;-89
2021/06/03 04:35:17;;;;;;;3.10;2.45;;;;;;;20.88;36.83;94309.38;4921711;28;20591;-90
2021/06/03 04:37:44;;;;;;;8.07;3.33;;;;;;;21.02;37.27;94304.41;4934061;28;20035;-89
2021/06/03 04:40:11;;;;;;;6.05;3.30;;;;;;;21.27;37.30;94286.28;4935145;28;20475;-84
2021/06/03 04:42:37;;;;;;;4.80;2.45;;;;;;;21.94;35.40;94312.25;4941179;28;20046;-85
2021/06/03 04:45:04;;;;;;;7.07;2.78;;;;;;;22.64;34.98;94309.66;4936507;28;20047;-88
2021/06/03 04:47:30;;;;;;;7.65;2.75;;;;;;;23.03;33.46;94302.44;4942225;28;20047;-87
2021/06/03 04:49:55;;;;;;;5.65;2.78;;;;;;;23.06;32.68;94296.34;4940998;28;20590;-89
2021/06/03 04:52:28;;;;;;;3.88;3.00;;;;;;;22.53;33.22;94297.88;4930063;28;20019;-87
2021/06/03 04:55:05;;;;;;;4.40;2.58;;;;;;;22.30;33.25;94307.72;4936295;28;20039;-86
2021/06/03 04:57:31;;;;;;;4.30;2.55;;;;;;;22.05;33.74;94317.91;4936787;28;20104;-88
2021/06/03 04:59:57;;;;;;;5.70;2.53;;;;;;;22.24;33.76;94317.19;4940557;28;20574;-88
2021/06/03 05:02:24;;;;;;;2.80;2.60;;;;;;;22.38;34.03;94317.56;4932464;28;20039;-89
2021/06/03 05:04:49;;;;;;;7.22;3.08;;;;;;;22.02;33.76;94327.47;4934294;28;20620;-90
2021/06/03 05:07:15;;;;;;;7.95;2.80;;;;;;;21.84;35.34;94318.16;4929907;29;20049;-87
2021/06/03 05:09:41;;;;;;;3.35;2.70;;;;;;;21.44;34.48;94309.41;4934842;28;20051;-86
2021/06/03 05:12:10;;;;;;;5.63;2.58;;;;;;;21.20;35.05;94314.91;4922411;29;20106;-89
2021/06/03 05:14:36;;;;;;;4.47;2.83;;;;;;;20.83;35.10;94312.28;4940589;28;20393;-85
2021/06/03 05:17:02;;;;;;;4.05;2.72;;;;;;;20.79;36.10;94322.16;4936574;28;20650;-81
2021/06/03 05:19:28;;;;;;;4.78;3.25;;;;;;;20.78;35.43;94309.84;4922245;29;20048;-86
2021/06/03 05:21:54;;;;;;;5.57;3.28;;;;;;;20.70;35.74;94305.41;4937653;28;20572;-82
2021/06/03 05:24:20;;;;;;;3.55;3.25;;;;;;;20.58;35.30;94314.25;4929575;28;20474;-86
2021/06/03 05:26:46;;;;;;;3.08;2.78;;;;;;;20.45;35.31;94314.59;4936655;28;20062;-84
2021/06/03 05:29:15;;;;;;;6.18;3.33;;;;;;;20.28;34.95;94326.34;4938601;28;20043;-85
2021/06/03 05:31:44;;;;;;;4.00;3.05;;;;;;;20.33;35.48;94328.06;4934915;28;20515;-89
2021/06/03 05:34:14;;;;;;;4.55;2.78;;;;;;;20.60;35.53;94325.44;4942655;28;20118;-87
2021/06/03 05:36:39;;;;;;;3.88;2.97;;;;;;;20.70;35.21;94319.59;4930207;28;20539;-86
2021/06/03 05:39:06;;;;;;;9.25;3.20;;;;;;;20.36;34.86;94330.06;4934978;28;20126;-87
2021/06/03 05:41:32;;;;;;;5.13;3.10;;;;;;;20.37;36.18;94337.00;4935276;28;20068;-88
2021/06/03 05:43:58;;;;;;;4.95;2.92;;;;;;;20.84;36.06;94340.72;4929802;28;20047;-87
2021/06/03 05:46:24;;;;;;;6.25;3.05;;;;;;;21.00;35.19;94338.13;4928003;29;20027;-86
2021/06/03 05:48:50;;;;;;;5.75;2.90;;;;;;;21.21;35.38;94335.28;4940388;28;20043;-87
2021/06/03 05:51:18;;;;;;;3.97;3.58;;;;;;;20.90;35.13;94339.38;4941926;28;20047;-84
2021/06/03 05:53:44;;;;;;;5.72;3.38;;;;;;;20.97;34.94;94347.63;4937033;28;20044;-85
2021/06/03 05:56:09;;;;;;;3.80;2.97;;;;;;;21.18;34.93;94339.41;4932751;28;20107;-86
2021/06/03 05:58:35;;;;;;;3.72;2.85;;;;;;;21.82;33.89;94330.38;4927729;28;20039;-88
2021/06/03 06:01:01;;;;;;;3.97;3.10;;;;;;;22.35;33.28;94327.09;4937903;28;20047;-86
2021/06/03 06:03:37;;;;;;;6.88;2.90;;;;;;;23.40;32.48;94340.56;4940978;28;20047;-86
2021/06/03 06:08:35;;;;;;;6.57;2.42;;;;;;;25.82;29.25;94327.66;4939295;28;20035;-87
2021/06/03 06:11:00;;;;;;;3.72;2.53;;;;;;;26.09;27.50;94331.00;4934133;28;20035;-88
2021/06/03 06:13:26;;;;;;;3.15;2.60;;;;;;;26.71;27.85;94325.69;4938665;28;20069;-84
2021/06/03 06:15:51;;;;;;;6.20;2.45;;;;;;;26.58;26.77;94340.72;4933723;28;20043;-88
2021/06/03 06:18:17;;;;;;;3.63;2.03;;;;;;;27.19;26.77;94329.09;4930952;28;20122;-87
2021/06/03 06:20:42;;;;;;;3.47;2.03;;;;;;;27.99;25.96;94341.44;4917932;29;20058;-86
2021/06/03 06:23:08;;;;;;;5.90;2.30;;;;;;;29.05;25.49;94331.72;4920808;29;20082;-86
2021/06/03 06:25:34;;;;;;;2.83;2.08;;;;;;;30.22;23.02;94332.00;4911672;29;20043;-83
2021/06/03 06:28:00;;;;;;;6.28;2.20;;;;;;;30.49;21.50;94327.56;4918332;29;20417;-86
2021/06/03 06:30:27;;;;;;;2.83;2.13;;;;;;;30.76;21.33;94330.41;4918464;29;20043;-89
2021/06/03 06:32:53;;;;;;;4.47;2.15;;;;;;;30.78;21.28;94328.06;4922620;29;20031;-89
2021/06/03 06:35:19;;;;;;;3.58;1.73;;;;;;;30.29;20.77;94328.44;4905031;29;20064;-80
2021/06/03 06:37:45;;;;;;;2.20;2.00;;;;;;;30.83;20.84;94329.59;4919554;29;20024;-89
2021/06/03 06:40:11;;;;;;;4.43;2.05;;;;;;;31.20;21.02;94337.81;4924381;29;20087;-87
2021/06/03 06:42:37;;;;;;;4.57;1.70;;;;;;;31.27;20.97;94340.47;4917850;29;20069;-86
2021/06/03 06:45:05;;;;;;;5.20;1.83;;;;;;;31.83;21.16;94346.44;4920789;29;20059;-85
2021/06/03 06:47:31;;;;;;;5.10;2.03;;;;;;;32.56;20.68;94345.78;4911392;28;20492;-86
2021/06/03 06:49:57;;;;;;;9.30;2.15;;;;;;;32.49;20.57;94354.13;4903340;29;20035;-83
2021/06/03 06:52:22;;;;;;;3.38;1.90;;;;;;;32.34;21.02;94341.84;4924779;29;20034;-88
2021/06/03 06:54:48;;;;;;;3.83;2.28;;;;;;;32.27;20.10;94348.19;4922878;29;20036;-89
2021/06/03 06:57:14;;;;;;;7.20;2.03;;;;;;;31.56;20.83;94351.06;4923342;28;20535;-87
2021/06/03 06:59:39;;;;;;;7.30;2.15;;;;;;;31.98;21.43;94347.03;4922566;28;20591;-86
2021/06/03 07:02:05;;;;;;;6.82;2.38;;;;;;;32.08;20.46;94343.38;4921420;29;20611;-86
2021/06/03 07:04:30;;;;;;;3.65;1.98;;;;;;;32.44;20.97;94333.50;4922185;29;20123;-87
2021/06/03 07:06:59;;;;;;;4.32;2.17;;;;;;;32.10;20.92;94341.81;4920250;28;20043;-86
2021/06/03 07:09:24;;;;;;;4.45;2.17;;;;;;;31.05;22.31;94336.41;4921936;29;20035;-86
2021/06/03 07:11:50;;;;;;;8.43;3.90;;;;;;;32.27;21.58;94336.47;4919475;29;20058;-87
2021/06/03 07:14:16;;;;;;;4.20;2.10;;;;;;;32.42;20.62;94337.81;4922984;29;21055;-92
2021/06/03 07:16:41;;;;;;;5.70;2.17;;;;;;;31.53;21.36;94340.94;4920716;29;20027;-87
2021/06/03 07:19:14;;;;;;;7.88;2.20;;;;;;;30.02;21.82;94336.41;4929631;28;20063;-88
2021/06/03 07:21:40;;;;;;;7.43;2.25;;;;;;;30.51;22.64;94351.69;4932924;28;20047;-85
2021/06/03 07:24:06;;;;;;;6.63;2.55;;;;;;;31.06;21.77;94332.50;4929600;28;20078;-87
2021/06/03 07:26:31;;;;;;;6.22;1.83;;;;;;;32.21;21.48;94339.69;4931270;28;20595;-89
2021/06/03 07:28:57;;;;;;;8.43;2.67;;;;;;;33.50;20.03;94344.56;4930409;28;20043;-84
2021/06/03 07:31:22;;;;;;;5.43;1.90;;;;;;;34.16;19.34;94343.59;4935218;28;20431;-87
2021/06/03 07:33:48;;;;;;;6.72;2.33;;;;;;;34.60;18.45;94326.50;4932295;28;20043;-87
2021/06/03 07:36:13;;;;;;;4.00;1.88;;;;;;;33.01;18.28;94340.75;4932134;28;20103;-86
2021/06/03 07:38:39;;;;;;;10.85;2.05;;;;;;;32.64;20.08;94355.50;4915702;28;20047;-86
2021/06/03 07:41:08;;;;;;;8.25;1.63;;;;;;;33.65;18.93;94334.09;4933947;28;20408;-85
2021/06/03 07:43:33;;;;;;;13.45;5.57;;;;;;;34.68;17.83;94333.41;4935883;28;20041;-87
2021/06/03 07:45:59;;;;;;;5.63;1.70;;;;;;;34.66;17.60;94335.75;4933786;28;20039;-86
2021/06/03 07:48:24;;;;;;;3.33;2.15;;;;;;;34.89;17.87;94342.31;4933981;28;20047;-87
2021/06/03 07:50:49;;;;;;;3.97;2.00;;;;;;;34.78;17.65;94340.59;4933913;28;20042;-88
2021/06/03 07:53:17;;;;;;;7.72;1.98;;;;;;;34.54;16.62;94339.22;4907785;28;20521;-87
2021/06/03 07:55:46;;;;;;;7.50;1.77;;;;;;;35.16;17.99;94345.50;4915592;28;20504;-81
2021/06/03 07:58:15;;;;;;;8.00;2.05;;;;;;;35.81;16.76;94339.84;4929925;28;20051;-86
2021/06/03 08:00:44;;;;;;;3.83;1.70;;;;;;;36.04;16.90;94337.59;4931628;28;20103;-89
2021/06/03 08:03:11;;;;;;;6.75;2.22;;;;;;;36.55;16.53;94336.84;4932313;28;20071;-90
2021/06/03 08:05:37;;;;;;;4.10;1.60;;;;;;;36.65;16.11;94331.03;4932434;28;20653;-86
2021/06/03 08:08:03;;;;;;;3.55;1.88;;;;;;;36.98;16.07;94337.00;4927869;28;20142;-86
2021/06/03 08:10:32;;;;;;;4.32;1.83;;;;;;;37.10;15.66;94322.44;4930666;28;20135;-83
2021/06/03 08:12:58;;;;;;;5.47;1.77;;;;;;;36.82;16.23;94321.41;4931561;28;20492;-88
2021/06/03 08:15:25;;;;;;;3.92;1.80;;;;;;;36.78;16.38;94311.72;4934115;28;20035;-85
2021/06/03 08:17:51;;;;;;;5.78;1.73;;;;;;;37.55;16.28;94335.06;4933357;28;20127;-89
2021/06/03 08:20:21;;;;;;;3.83;1.48;;;;;;;37.39;15.67;94333.25;4934194;28;20051;-85
2021/06/03 08:22:47;;;;;;;6.50;2.40;;;;;;;37.34;15.19;94330.31;4920427;28;20604;-85
2021/06/03 08:25:16;;;;;;;5.22;1.60;;;;;;;37.07;15.45;94336.31;4907270;28;20057;-85
2021/06/03 08:27:42;;;;;;;6.43;1.88;;;;;;;36.03;16.52;94336.03;4933100;28;20026;-89
2021/06/03 08:30:11;;;;;;;3.58;1.40;;;;;;;34.93;18.19;94332.00;4932881;28;20054;-85
2021/06/03 08:32:37;;;;;;;6.07;1.90;;;;;;;34.11;18.68;94338.63;4924869;28;20040;-88
2021/06/03 08:35:03;;;;;;;4.60;2.10;;;;;;;32.91;19.60;94347.19;4928771;28;20308;-81
2021/06/03 08:37:30;;;;;;;4.38;1.90;;;;;;;32.89;19.71;94344.88;4930123;28;20455;-88
2021/06/03 08:39:56;;;;;;;6.25;2.30;;;;;;;31.94;19.25;94351.78;4929747;28;20620;-86
2021/06/03 08:42:21;;;;;;;4.40;1.58;;;;;;;30.78;20.35;94354.59;4937655;28;20753;-89
2021/06/03 08:44:52;;;;;;;4.35;2.15;;;;;;;30.22;21.86;94353.03;4915470;28;20420;-86
2021/06/03 08:47:21;;;;;;;4.38;2.70;;;;;;;30.17;23.12;94365.13;4933346;28;20635;-83
2021/06/03 08:49:46;;;;;;;8.02;2.70;;;;;;;30.11;23.18;94355.81;4934684;28;20045;-87
2021/06/03 08:52:13;;;;;;;6.55;2.72;;;;;;;30.05;23.74;94368.34;4909919;29;20039;-85
2021/06/03 08:54:40;;;;;;;5.78;2.10;;;;;;;29.97;23.39;94343.06;4927888;28;20534;-84
2021/06/03 08:57:08;;;;;;;2.22;2.00;;;;;;;30.87;22.92;94357.63;4931772;28;20043;-87
2021/06/03 08:59:34;;;;;;;8.30;2.67;;;;;;;31.14;20.78;94339.44;4932779;28;20047;-89
2021/06/03 09:01:59;;;;;;;5.15;2.05;;;;;;;30.84;21.20;94358.41;4930897;28;20031;-88
2021/06/03 09:04:24;;;;;;;4.93;1.92;;;;;;;30.15;21.35;94358.53;4933119;28;20054;-88
2021/06/03 09:06:50;;;;;;;5.93;2.22;;;;;;;29.84;22.35;94363.75;4930933;28;20031;-84
2021/06/03 09:09:25;;;;;;;4.00;1.75;;;;;;;29.33;23.36;94369.78;4914149;28;20044;-84
2021/06/03 09:12:09;;;;;;;2.90;1.85;;;;;;;28.96;23.49;94361.28;4939104;28;20039;-87
2021/06/03 09:14:35;;;;;;;4.45;2.33;;;;;;;28.81;23.93;94352.38;4939849;28;20070;-88
2021/06/03 09:17:00;;;;;;;3.67;2.53;;;;;;;28.75;25.18;94365.59;4929894;28;20138;-87
2021/06/03 09:19:26;;;;;;;5.55;2.33;;;;;;;28.62;23.83;94358.19;4933329;28;20083;-87
2021/06/03 09:21:52;;;;;;;2.75;1.70;;;;;;;28.12;24.36;94358.16;4937636;28;20158;-79
2021/06/03 09:24:20;;;;;;;4.60;2.42;;;;;;;27.22;24.57;94357.41;4940233;28;20036;-87
2021/06/03 09:26:48;;;;;;;4.80;2.58;;;;;;;27.15;25.81;94364.34;4911734;28;20458;-88
2021/06/03 09:29:36;;;;;;;3.88;3.10;;;;;;;27.07;27.59;94368.16;4905266;28;20039;-88
2021/06/03 09:32:11;;;;;;;3.42;3.13;;;;;;;26.69;26.33;94371.38;4934676;28;20117;-86
2021/06/03 09:34:39;;;;;;;4.63;2.80;;;;;;;26.83;27.71;94368.00;4940553;28;20138;-87
2021/06/03 09:37:07;;;;;;;4.68;2.67;;;;;;;26.52;27.99;94358.47;4934768;28;21388;-87
2021/06/03 09:39:35;;;;;;;8.65;2.67;;;;;;;26.42;28.02;94349.13;4922201;28;20663;-87
2021/06/03 09:42:05;;;;;;;8.00;2.80;;;;;;;26.50;27.69;94366.97;4937423;28;20116;-86
2021/06/03 09:44:31;;;;;;;5.68;3.30;;;;;;;26.16;27.54;94347.31;4938583;28;20102;-84
2021/06/03 09:47:02;;;;;;;4.10;3.20;;;;;;;25.70;29.02;94355.00;4936888;28;20066;-88
2021/06/03 09:49:33;;;;;;;9.23;3.63;;;;;;;25.78;27.89;94353.13;4937292;28;20043;-86
2021/06/03 09:52:08;;;;;;;11.38;7.45;;;;;;;25.73;28.10;94346.13;4937869;28;20498;-88
2021/06/03 09:54:35;;;;;;;5.80;2.58;;;;;;;25.57;27.54;94348.25;4938179;28;20019;-85
2021/06/03 09:57:07;;;;;;;8.95;3.25;;;;;;;25.87;29.55;94356.31;4938656;28;20554;-86
2021/06/03 09:59:43;;;;;;;9.10;3.42;;;;;;;26.06;27.90;94358.03;4935119;28;20070;-88
2021/06/03 10:02:21;;;;;;;5.15;3.03;;;;;;;25.90;27.11;94363.72;4937520;28;20581;-90
2021/06/03 10:04:49;;;;;;;4.82;2.97;;;;;;;25.67;30.89;94368.47;4929537;28;20136;-89
2021/06/03 10:07:26;;;;;;;6.68;2.28;;;;;;;25.70;28.06;94365.81;4939283;28;20050;-89
2021/06/03 10:09:54;;;;;;;3.17;2.63;;;;;;;25.37;28.63;94361.13;4935589;28;20499;-84
2021/06/03 10:12:23;;;;;;;8.88;2.63;;;;;;;25.42;28.59;94358.09;4938937;28;20089;-89
2021/06/03 10:15:27;;;;;;;5.00;3.10;;;;;;;24.89;28.58;94372.84;4937017;28;21606;-88
2021/06/03 10:17:54;;;;;;;6.30;2.83;;;;;;;24.99;29.32;94358.69;4894133;28;20055;-89
2021/06/03 10:20:29;;;;;;;13.90;3.38;;;;;;;24.99;30.87;94361.41;4938196;28;20074;-85
2021/06/03 10:22:58;;;;;;;3.58;2.63;;;;;;;25.10;29.44;94367.75;4935681;28;20044;-91
2021/06/03 10:25:29;;;;;;;6.00;2.42;;;;;;;24.81;30.17;94352.25;4939607;28;20085;-87
2021/06/03 10:27:58;;;;;;;3.03;2.30;;;;;;;25.23;29.62;94365.59;4951738;28;20058;-83
2021/06/03 10:30:31;;;;;;;5.05;2.53;;;;;;;24.83;30.32;94374.28;4936986;28;20026;-89
2021/06/03 10:33:00;;;;;;;4.93;2.60;;;;;;;24.87;29.41;94367.81;4905291;28;20043;-89
2021/06/03 10:35:29;;;;;;;3.72;2.20;;;;;;;25.07;29.37;94368.47;4928081;28;20527;-89
2021/06/03 10:37:56;;;;;;;4.88;3.17;;;;;;;25.13;28.80;94353.47;4934279;28;20649;-88
2021/06/03 10:40:28;;;;;;;5.78;2.58;;;;;;;25.08;27.58;94353.00;4936271;28;20424;-91
2021/06/03 10:42:58;;;;;;;3.15;2.33;;;;;;;25.03;28.16;94359.53;4952067;28;20039;-86
2021/06/03 10:45:27;;;;;;;8.40;3.42;;;;;;;24.97;28.99;94363.72;4940240;28;20023;-84
2021/06/03 10:47:53;;;;;;;2.65;2.30;;;;;;;24.98;29.60;94357.91;4938138;28;20047;-86
2021/06/03 10:50:24;;;;;;;7.60;2.95;;;;;;;24.76;28.99;94364.16;4937562;28;20047;-88
2021/06/03 10:52:50;;;;;;;2.60;2.30;;;;;;;24.75;28.63;94353.69;4937152;28;20074;-85
2021/06/03 10:55:39;;;;;;;4.82;2.55;;;;;;;24.50;27.87;94343.28;4936970;28;20399;-84
2021/06/03 10:58:07;;;;;;;2.72;2.28;;;;;;;24.52;28.36;94343.72;4938301;28;20501;-89
2021/06/03 11:00:40;;;;;;;9.00;2.58;;;;;;;24.68;28.32;94345.50;4938387;28;20019;-88
2021/06/03 11:03:09;;;;;;;6.68;2.33;;;;;;;24.89;28.24;94351.22;4939727;28;20322;-84
2021/06/03 11:05:41;;;;;;;6.72;2.33;;;;;;;25.04;29.86;94347.56;4938833;28;20039;-87
2021/06/03 11:08:24;;;;;;;4.70;2.63;;;;;;;24.78;27.77;94366.47;4935842;28;20046;-88
2021/06/03 11:10:49;;;;;;;6.97;2.67;;;;;;;24.71;28.81;94356.34;4939959;28;20051;-88
2021/06/03 11:13:15;;;;;;;5.20;2.50;;;;;;;24.76;28.35;94363.38;4936754;28;20094;-87
2021/06/03 11:15:59;;;;;;;5.78;3.00;;;;;;;24.86;28.78;94357.34;4950022;28;20113;-88
2021/06/03 11:18:47;;;;;;;4.70;2.47;;;;;;;24.49;28.10;94349.84;4922104;28;20047;-85
2021/06/03 11:21:46;;;;;;;3.33;2.60;;;;;;;24.47;29.33;94362.94;4936594;28;20354;-89
2021/06/03 11:24:36;;;;;;;3.63;2.45;;;;;;;24.57;28.85;94353.44;4913983;28;20051;-85
2021/06/03 11:27:35;;;;;;;6.68;2.30;;;;;;;24.77;nan;94351.41;4936388;28;20126;-85
2021/06/03 11:30:02;;;;;;;5.13;3.10;;;;;;;24.53;28.28;94347.97;4934751;28;20053;-87
2021/06/03 11:32:39;;;;;;;3.97;2.47;;;;;;;24.49;28.83;94347.13;4933885;28;20046;-86
2021/06/03 11:35:12;;;;;;;4.45;2.83;;;;;;;24.80;31.33;94345.28;4936957;28;20631;-88
2021/06/03 11:37:41;;;;;;;3.97;2.33;;;;;;;24.84;28.16;94343.41;4936448;28;20071;-86
2021/06/03 11:40:09;;;;;;;6.03;3.25;;;;;;;24.86;28.58;94346.53;4934845;28;20035;-89